Terminal Aerodrome Forecast
Issued by NWS Pittsburgh, PA

Current Version | Previous Version | Graphics & Text | Print | Product List | Glossary On
Versions: 1 2 3 4 5 6 7 8 9 10 11 12 13 14 15 16 17 18 19 20 21 22 23 24 25 26 27 28 29
000
FTUS41 KPBZ 201302 AAA
TAFPIT
TAF AMD
KPIT 201302Z 2013/2118 00000KT 1/4SM FG VV001
     FM201400 00000KT 1/2SM FG BKN003
     FM201500 00000KT P6SM SCT020
     FM201600 VRB04KT P6SM FEW250=

USA.gov is the U.S. government's official web portal to all federal, state and local government web resources and services.